createdAt,value
2023-02-11T00:00:22.466Z,24.80
2023-02-11T00:02:49.228Z,24.60
2023-02-11T00:05:16.241Z,23.50
2023-02-11T00:07:43.008Z,23.30
2023-02-11T00:10:10.179Z,24.30
2023-02-11T00:12:38.235Z,24.60
2023-02-11T00:15:06.443Z,25.50
2023-02-11T00:17:33.453Z,21.30
2023-02-11T00:20:00.234Z,24.30
2023-02-11T00:22:27.444Z,23.40
2023-02-11T00:24:54.338Z,29.10
2023-02-11T00:27:21.236Z,27.20
2023-02-11T00:29:47.992Z,24.30
2023-02-11T00:32:14.809Z,23.60
2023-02-11T00:34:41.778Z,25.80
2023-02-11T00:37:08.565Z,21.10
2023-02-11T00:39:35.303Z,29.30
2023-02-11T00:42:03.552Z,23.40
2023-02-11T00:44:30.463Z,25.60
2023-02-11T00:46:57.279Z,25.30
2023-02-11T00:49:25.356Z,21.40
2023-02-11T00:51:52.124Z,24.60
2023-02-11T00:54:20.240Z,26.60
2023-02-11T00:56:47.026Z,24.00
2023-02-11T00:59:13.961Z,25.10
2023-02-11T01:01:44.116Z,23.50
2023-02-11T01:04:11.058Z,23.00
2023-02-11T01:06:37.844Z,22.40
2023-02-11T01:09:05.522Z,24.00
2023-02-11T01:11:35.541Z,22.70
2023-02-11T01:14:02.745Z,26.90
2023-02-11T01:16:29.567Z,27.50
2023-02-11T01:18:56.365Z,21.40
2023-02-11T01:21:23.105Z,24.90
2023-02-11T01:23:50.703Z,24.40
2023-02-11T01:26:17.512Z,25.90
2023-02-11T01:28:44.672Z,25.90
2023-02-11T01:31:11.552Z,17.20
2023-02-11T01:33:38.633Z,26.70
2023-02-11T01:36:07.485Z,26.00
2023-02-11T01:38:34.938Z,26.20
2023-02-11T01:41:08.642Z,26.90
2023-02-11T01:43:39.926Z,27.30
2023-02-11T01:46:23.475Z,23.10
2023-02-11T01:49:07.218Z,23.10
2023-02-11T01:51:40.199Z,21.90
2023-02-11T01:54:26.421Z,18.40
2023-02-11T01:57:12.467Z,24.80
2023-02-11T01:59:48.658Z,23.70
2023-02-11T02:02:20.279Z,26.10
2023-02-11T02:04:55.376Z,24.40
2023-02-11T02:07:33.478Z,24.90
2023-02-11T02:10:07.695Z,24.40
2023-02-11T02:12:36.394Z,24.90
2023-02-11T02:15:19.829Z,16.90
2023-02-11T02:17:57.735Z,21.80
2023-02-11T02:20:31.919Z,22.40
2023-02-11T02:23:14.206Z,21.80
2023-02-11T02:25:50.714Z,23.40
2023-02-11T02:28:37.011Z,23.90
2023-02-11T02:31:20.501Z,23.60
2023-02-11T02:34:00.639Z,17.70
2023-02-11T02:36:43.438Z,22.80
2023-02-11T02:39:20.541Z,23.00
2023-02-11T02:41:51.131Z,16.00
2023-02-11T02:44:20.021Z,21.20
2023-02-11T02:46:46.962Z,20.30
2023-02-11T02:49:15.844Z,20.50
2023-02-11T02:51:59.099Z,23.80
2023-02-11T02:54:42.179Z,22.80
2023-02-11T02:57:09.936Z,20.50
2023-02-11T02:59:59.833Z,22.70
2023-02-11T03:02:41.708Z,22.90
2023-02-11T03:05:12.219Z,23.00
2023-02-11T03:07:39.954Z,23.60
2023-02-11T03:10:17.188Z,23.10
2023-02-11T03:12:46.385Z,18.80
2023-02-11T03:15:14.959Z,21.50
2023-02-11T03:17:44.351Z,17.50
2023-02-11T03:20:14.705Z,21.00
2023-02-11T03:22:49.614Z,19.20
2023-02-11T03:25:16.997Z,22.00
2023-02-11T03:27:54.260Z,20.10
2023-02-11T03:30:30.705Z,18.00
2023-02-11T03:33:08.632Z,19.80
2023-02-11T03:35:41.944Z,18.00
2023-02-11T03:38:15.928Z,16.50
2023-02-11T03:40:45.763Z,19.20
2023-02-11T03:43:17.193Z,18.20
2023-02-11T03:45:46.359Z,19.60
2023-02-11T03:48:20.689Z,18.80
2023-02-11T03:50:50.462Z,19.70
2023-02-11T03:53:19.212Z,16.50
2023-02-11T03:55:48.670Z,19.70
2023-02-11T03:58:15.841Z,20.60
2023-02-11T04:00:43.682Z,16.70
2023-02-11T04:03:11.877Z,16.70
2023-02-11T04:05:39.182Z,19.60
2023-02-11T04:08:06.705Z,15.80
2023-02-11T04:10:33.566Z,16.00
2023-02-11T04:13:00.264Z,19.20
2023-02-11T04:15:27.144Z,16.50
2023-02-11T04:17:53.986Z,17.20
2023-02-11T04:20:20.983Z,12.80
2023-02-11T04:22:47.733Z,17.40
2023-02-11T04:25:14.643Z,17.40
2023-02-11T04:27:41.386Z,18.80
2023-02-11T04:30:08.710Z,16.90
2023-02-11T04:32:35.485Z,17.60
2023-02-11T04:35:03.095Z,20.70
2023-02-11T04:37:30.094Z,17.50
2023-02-11T04:39:56.903Z,16.50
2023-02-11T04:42:23.816Z,13.90
2023-02-11T04:44:50.655Z,17.00
2023-02-11T04:47:18.199Z,16.10
2023-02-11T04:49:45.121Z,20.80
2023-02-11T04:52:11.868Z,19.50
2023-02-11T04:54:38.762Z,20.90
2023-02-11T04:57:05.739Z,18.60
2023-02-11T04:59:32.445Z,15.70
2023-02-11T05:01:59.267Z,18.20
2023-02-11T05:04:26.119Z,17.40
2023-02-11T05:06:52.913Z,17.20
2023-02-11T05:09:19.997Z,19.60
2023-02-11T05:11:46.802Z,15.80
2023-02-11T05:14:13.829Z,19.00
2023-02-11T05:16:40.862Z,15.00
2023-02-11T05:19:07.650Z,15.50
2023-02-11T05:21:34.723Z,17.10
2023-02-11T05:24:01.498Z,15.80
2023-02-11T05:26:28.372Z,15.70
2023-02-11T05:28:55.273Z,15.80
2023-02-11T05:31:22.099Z,13.00
2023-02-11T05:33:48.833Z,15.60
2023-02-11T05:36:16.937Z,16.50
2023-02-11T05:38:43.821Z,15.80
2023-02-11T05:41:11.615Z,15.80
2023-02-11T05:43:38.462Z,14.30
2023-02-11T05:46:06.025Z,15.30
2023-02-11T05:48:33.202Z,14.70
2023-02-11T05:51:00.036Z,13.70
2023-02-11T05:53:26.790Z,13.40
2023-02-11T05:55:53.894Z,12.00
2023-02-11T05:58:20.808Z,17.10
2023-02-11T06:00:47.565Z,12.20
2023-02-11T06:03:14.342Z,14.10
2023-02-11T06:05:43.469Z,13.70
2023-02-11T06:08:10.515Z,11.00
2023-02-11T06:10:37.535Z,11.40
2023-02-11T06:13:04.585Z,15.50
2023-02-11T06:15:31.304Z,13.00
2023-02-11T06:17:58.049Z,12.90
2023-02-11T06:20:24.946Z,15.10
2023-02-11T06:22:51.687Z,14.00
2023-02-11T06:25:18.588Z,13.90
2023-02-11T06:27:45.471Z,14.20
2023-02-11T06:30:12.942Z,11.00
2023-02-11T06:32:44.580Z,13.80
2023-02-11T06:35:13.564Z,15.30
2023-02-11T06:37:41.763Z,13.50
2023-02-11T06:40:09.755Z,11.30
2023-02-11T06:42:38.853Z,13.80
2023-02-11T06:45:07.787Z,13.20
2023-02-11T06:47:34.642Z,13.90
2023-02-11T06:50:01.367Z,11.80
2023-02-11T06:52:28.180Z,14.20
2023-02-11T06:54:54.950Z,12.50
2023-02-11T06:57:21.648Z,11.50
2023-02-11T06:59:48.959Z,13.70
2023-02-11T07:02:16.781Z,13.80
2023-02-11T07:04:44.763Z,15.50
2023-02-11T07:07:11.486Z,11.10
2023-02-11T07:09:38.266Z,11.80
2023-02-11T07:12:05.107Z,12.70
2023-02-11T07:14:31.786Z,12.90
2023-02-11T07:16:58.548Z,11.80
2023-02-11T07:19:25.292Z,15.00
2023-02-11T07:21:51.969Z,11.70
2023-02-11T07:24:18.836Z,13.60
2023-02-11T07:26:45.650Z,13.80
2023-02-11T07:29:12.456Z,12.80
2023-02-11T07:31:40.413Z,14.50
2023-02-11T07:34:07.303Z,13.60
2023-02-11T07:36:34.236Z,13.90
2023-02-11T07:39:00.994Z,13.00
2023-02-11T07:41:28.172Z,14.70
2023-02-11T07:43:55.321Z,12.60
2023-02-11T07:46:25.361Z,16.20
2023-02-11T07:48:53.081Z,11.80
2023-02-11T07:51:25.848Z,14.30
2023-02-11T07:53:53.562Z,14.70
2023-02-11T07:56:21.553Z,14.70
2023-02-11T07:58:48.954Z,14.90
2023-02-11T08:01:22.581Z,13.30
2023-02-11T08:03:49.496Z,13.00
2023-02-11T08:06:18.655Z,13.90
2023-02-11T08:08:45.929Z,12.70
2023-02-11T08:11:15.533Z,12.50
2023-02-11T08:13:42.740Z,14.40
2023-02-11T08:16:10.409Z,16.20
2023-02-11T08:18:37.169Z,14.20
2023-02-11T08:21:06.117Z,15.20
2023-02-11T08:23:33.458Z,15.20
2023-02-11T08:26:03.705Z,15.80
2023-02-11T08:28:30.773Z,14.70
2023-02-11T08:30:57.778Z,16.00
2023-02-11T08:33:24.516Z,16.30
2023-02-11T08:35:51.644Z,13.60
2023-02-11T08:38:18.400Z,14.30
2023-02-11T08:40:45.141Z,16.50
2023-02-11T08:43:11.887Z,15.30
2023-02-11T08:45:38.648Z,12.70
2023-02-11T08:48:05.515Z,14.50
2023-02-11T08:50:32.374Z,14.20
2023-02-11T08:52:59.104Z,14.50
2023-02-11T08:55:25.878Z,16.50
2023-02-11T08:57:52.705Z,13.90
2023-02-11T09:00:19.878Z,15.10
2023-02-11T09:02:46.579Z,17.10
2023-02-11T09:05:14.059Z,15.10
2023-02-11T09:07:40.866Z,16.10
2023-02-11T09:10:08.754Z,15.00
2023-02-11T09:12:35.651Z,17.20
2023-02-11T09:15:02.343Z,16.60
2023-02-11T09:17:29.129Z,15.70
2023-02-11T09:19:55.833Z,15.30
2023-02-11T09:22:22.641Z,16.70
2023-02-11T09:24:49.443Z,16.30
2023-02-11T09:27:16.166Z,14.10
2023-02-11T09:29:43.111Z,16.80
2023-02-11T09:32:10.207Z,17.20
2023-02-11T09:34:37.260Z,18.40
2023-02-11T09:37:04.104Z,18.50
2023-02-11T09:39:30.983Z,17.30
2023-02-11T09:42:05.588Z,14.90
2023-02-11T09:44:35.225Z,18.40
2023-02-11T09:47:07.393Z,18.10
2023-02-11T09:49:43.070Z,16.60
2023-02-11T09:52:30.839Z,17.60
2023-02-11T09:55:00.304Z,16.90
2023-02-11T09:57:32.458Z,16.50
2023-02-11T10:00:00.530Z,15.40
2023-02-11T10:02:32.390Z,15.70
2023-02-11T10:05:17.696Z,17.90
2023-02-11T10:07:59.445Z,16.40
2023-02-11T10:10:26.826Z,17.30
2023-02-11T10:13:03.170Z,16.00
2023-02-11T10:15:45.040Z,14.20
2023-02-11T10:18:20.116Z,15.00
2023-02-11T10:21:12.928Z,14.90
2023-02-11T10:23:45.461Z,16.80
2023-02-11T10:26:16.180Z,17.80
2023-02-11T10:28:47.029Z,19.10
2023-02-11T10:31:28.978Z,15.10
2023-02-11T10:34:00.277Z,18.00
2023-02-11T10:36:32.577Z,15.60
2023-02-11T10:39:12.446Z,15.80
2023-02-11T10:41:45.321Z,15.60
2023-02-11T10:44:24.308Z,16.60
2023-02-11T10:46:52.479Z,17.60
2023-02-11T10:49:44.218Z,17.10
2023-02-11T10:52:16.856Z,16.30
2023-02-11T10:55:03.319Z,15.70
2023-02-11T10:57:36.313Z,16.90
2023-02-11T11:00:28.812Z,17.50
2023-02-11T11:02:58.945Z,16.80
2023-02-11T11:05:31.743Z,16.20
2023-02-11T11:08:01.950Z,16.50
2023-02-11T11:10:35.789Z,20.40
2023-02-11T11:13:03.359Z,16.10
2023-02-11T11:15:31.988Z,16.90
2023-02-11T11:18:22.547Z,17.80
2023-02-11T11:21:14.828Z,18.40
2023-02-11T11:23:52.498Z,18.30
2023-02-11T11:26:20.040Z,19.20
2023-02-11T11:28:46.821Z,19.80
2023-02-11T11:31:19.122Z,17.20
2023-02-11T11:33:47.868Z,19.00
2023-02-11T11:36:21.451Z,19.50
2023-02-11T11:39:01.047Z,14.80
2023-02-11T11:41:29.191Z,19.80
2023-02-11T11:44:25.322Z,19.90
2023-02-11T11:47:12.374Z,18.50
2023-02-11T11:49:39.233Z,18.60
2023-02-11T11:52:20.583Z,16.20
2023-02-11T11:54:55.438Z,17.90
2023-02-11T11:57:29.675Z,17.20
2023-02-11T12:02:41.725Z,17.60
2023-02-11T12:05:20.186Z,17.90
2023-02-11T12:07:54.297Z,18.40
2023-02-11T12:10:35.571Z,20.80
2023-02-11T12:13:33.299Z,19.50
2023-02-11T12:16:30.925Z,21.30
2023-02-11T12:19:14.335Z,18.70
2023-02-11T12:21:41.037Z,15.50
2023-02-11T12:24:30.733Z,17.00
2023-02-11T12:27:10.902Z,19.00
2023-02-11T12:29:58.237Z,19.40
2023-02-11T12:32:39.908Z,16.80
2023-02-11T12:35:13.320Z,16.70
2023-02-11T12:37:56.462Z,16.30
2023-02-11T12:40:35.113Z,17.80
2023-02-11T12:43:20.622Z,20.40
2023-02-11T12:46:18.407Z,15.80
2023-02-11T12:49:08.284Z,26.70
2023-02-11T12:51:49.392Z,21.80
2023-02-11T12:54:31.886Z,19.20
2023-02-11T12:57:14.213Z,20.90
2023-02-11T12:59:41.201Z,17.30
2023-02-11T13:02:19.077Z,22.20
2023-02-11T13:04:54.248Z,25.90
2023-02-11T13:07:31.114Z,19.90
2023-02-11T13:10:08.134Z,39.00
2023-02-11T13:12:52.423Z,22.00
2023-02-11T13:15:19.349Z,19.10
2023-02-11T13:17:52.862Z,22.20
2023-02-11T13:20:42.905Z,52.30
2023-02-11T13:23:23.490Z,16.80
2023-02-11T13:25:58.002Z,17.50
2023-02-11T13:28:46.671Z,19.90
2023-02-11T13:31:16.466Z,19.00
2023-02-11T13:33:44.487Z,21.60
2023-02-11T13:36:15.205Z,25.70
2023-02-11T13:38:52.964Z,21.40
2023-02-11T13:41:27.862Z,60.50
2023-02-11T13:44:00.440Z,21.20
2023-02-11T13:46:30.838Z,19.50
2023-02-11T13:48:58.383Z,48.50
2023-02-11T13:51:42.473Z,22.80
2023-02-11T13:54:22.735Z,20.40
2023-02-11T13:57:24.655Z,23.40
2023-02-11T13:59:55.414Z,22.30
2023-02-11T14:02:53.693Z,15.90
2023-02-11T14:05:42.089Z,20.30
2023-02-11T14:08:25.435Z,30.00
2023-02-11T14:10:56.212Z,20.40
2023-02-11T14:13:31.823Z,21.60
2023-02-11T14:16:18.680Z,19.40
2023-02-11T14:18:55.408Z,17.40
2023-02-11T14:21:25.965Z,19.70
2023-02-11T14:23:56.107Z,23.30
2023-02-11T14:26:35.049Z,22.90
2023-02-11T14:29:15.511Z,19.40
2023-02-11T14:31:54.430Z,22.50
2023-02-11T14:34:40.288Z,22.80
2023-02-11T14:37:22.786Z,23.10
2023-02-11T14:40:11.080Z,19.10
2023-02-11T14:42:38.461Z,22.70
2023-02-11T14:45:11.096Z,23.00
2023-02-11T14:48:13.356Z,17.90
2023-02-11T14:51:00.556Z,19.40
2023-02-11T14:53:30.623Z,22.30
2023-02-11T14:55:57.625Z,22.20
2023-02-11T14:58:28.179Z,24.90
2023-02-11T15:01:00.278Z,26.00
2023-02-11T15:03:33.486Z,21.50
2023-02-11T15:06:12.941Z,24.20
2023-02-11T15:08:47.401Z,23.60
2023-02-11T15:11:18.218Z,20.50
2023-02-11T15:13:49.803Z,21.60
2023-02-11T15:16:22.085Z,21.40
2023-02-11T15:18:54.527Z,23.90
2023-02-11T15:21:27.656Z,26.20
2023-02-11T15:24:00.558Z,41.90
2023-02-11T15:26:28.010Z,42.80
2023-02-11T15:28:56.373Z,87.10
2023-02-11T15:31:25.590Z,23.60
2023-02-11T15:33:53.277Z,25.80
2023-02-11T15:36:29.016Z,19.80
2023-02-11T15:39:19.740Z,28.20
2023-02-11T15:41:46.564Z,22.90
2023-02-11T15:44:30.640Z,23.00
2023-02-11T15:46:58.162Z,28.10
2023-02-11T15:49:26.591Z,23.30
2023-02-11T15:51:57.011Z,25.90
2023-02-11T15:54:29.607Z,32.70
2023-02-11T15:57:03.843Z,22.10
2023-02-11T16:02:10.424Z,29.20
2023-02-11T16:04:38.078Z,33.90
2023-02-11T16:07:05.457Z,27.20
2023-02-11T16:09:35.211Z,27.60
2023-02-11T16:12:07.604Z,22.50
2023-02-11T16:14:37.416Z,30.40
2023-02-11T16:17:07.439Z,28.20
2023-02-11T16:19:35.865Z,27.60
2023-02-11T16:22:09.360Z,29.60
2023-02-11T16:24:38.434Z,32.20
2023-02-11T16:27:18.998Z,26.30
2023-02-11T16:29:48.722Z,26.30
2023-02-11T16:32:17.771Z,27.20
2023-02-11T16:34:45.205Z,29.00
2023-02-11T16:37:12.286Z,31.10
2023-02-11T16:39:39.264Z,41.50
2023-02-11T16:42:07.849Z,32.30
2023-02-11T16:44:35.577Z,33.50
2023-02-11T16:47:04.041Z,38.20
2023-02-11T16:49:35.416Z,33.20
2023-02-11T16:52:06.876Z,43.60
2023-02-11T16:54:34.129Z,25.00
2023-02-11T16:57:02.301Z,81.20
2023-02-11T16:59:29.550Z,37.50
2023-02-11T17:01:57.800Z,27.40
2023-02-11T17:04:30.617Z,35.30
2023-02-11T17:06:58.631Z,27.40
2023-02-11T17:09:30.554Z,29.20
2023-02-11T17:11:58.115Z,24.20
2023-02-11T17:14:24.825Z,39.30
2023-02-11T17:16:51.905Z,27.70
2023-02-11T17:19:21.893Z,28.30
2023-02-11T17:21:51.799Z,28.20
2023-02-11T17:24:19.892Z,26.00
2023-02-11T17:26:47.301Z,28.30
2023-02-11T17:29:16.896Z,25.90
2023-02-11T17:31:43.987Z,24.20
2023-02-11T17:34:11.398Z,25.80
2023-02-11T17:36:38.477Z,27.40
2023-02-11T17:39:08.010Z,29.40
2023-02-11T17:41:37.314Z,23.40
2023-02-11T17:44:05.451Z,28.90
2023-02-11T17:46:34.762Z,32.30
2023-02-11T17:49:02.128Z,28.00
2023-02-11T17:51:31.662Z,29.30
2023-02-11T17:54:02.023Z,29.50
2023-02-11T17:56:31.393Z,28.40
2023-02-11T17:58:58.117Z,28.10
2023-02-11T18:01:28.018Z,26.70
2023-02-11T18:03:55.180Z,28.70
2023-02-11T18:06:22.173Z,32.90
2023-02-11T18:08:48.919Z,31.20
2023-02-11T18:11:16.699Z,20.80
2023-02-11T18:13:45.673Z,25.60
2023-02-11T18:16:16.045Z,33.40
2023-02-11T18:18:43.607Z,23.20
2023-02-11T18:21:15.854Z,28.60
2023-02-11T18:23:43.868Z,27.10
2023-02-11T18:26:12.366Z,29.80
2023-02-11T18:28:39.897Z,18.00
2023-02-11T18:31:08.070Z,28.10
2023-02-11T18:33:37.206Z,28.60
2023-02-11T18:36:07.840Z,31.90
2023-02-11T18:38:34.997Z,27.90
2023-02-11T18:41:01.936Z,29.00
2023-02-11T18:43:33.779Z,26.90
2023-02-11T18:46:02.597Z,30.80
2023-02-11T18:48:29.756Z,29.50
2023-02-11T18:50:56.517Z,32.20
2023-02-11T18:53:24.755Z,35.20
2023-02-11T18:55:52.780Z,39.00
2023-02-11T18:58:21.441Z,36.40
2023-02-11T19:00:50.050Z,31.70
2023-02-11T19:03:17.310Z,31.20
2023-02-11T19:05:46.595Z,32.40
2023-02-11T19:08:14.148Z,35.80
2023-02-11T19:10:43.186Z,46.30
2023-02-11T19:13:10.423Z,29.90
2023-02-11T19:15:46.271Z,39.90
2023-02-11T19:18:16.017Z,32.50
2023-02-11T19:20:44.118Z,30.70
2023-02-11T19:23:11.203Z,28.00
2023-02-11T19:25:44.555Z,29.70
2023-02-11T19:28:11.758Z,32.60
2023-02-11T19:30:38.933Z,33.60
2023-02-11T19:33:07.213Z,25.10
2023-02-11T19:35:35.778Z,31.60
2023-02-11T19:38:04.206Z,34.40
2023-02-11T19:40:31.462Z,35.00
2023-02-11T19:42:58.644Z,33.00
2023-02-11T19:45:26.964Z,34.30
2023-02-11T19:47:55.763Z,30.70
2023-02-11T19:50:23.109Z,30.70
2023-02-11T19:52:50.018Z,29.80
2023-02-11T19:55:16.783Z,29.00
2023-02-11T19:57:44.921Z,33.50
2023-02-11T20:00:12.249Z,30.80
2023-02-11T20:02:40.522Z,31.20
2023-02-11T20:05:07.768Z,31.50
2023-02-11T20:07:35.228Z,32.80
2023-02-11T20:10:02.904Z,30.10
2023-02-11T20:12:29.689Z,35.00
2023-02-11T20:14:56.678Z,32.30
2023-02-11T20:17:23.478Z,32.40
2023-02-11T20:19:50.397Z,32.40
2023-02-11T20:22:17.404Z,34.30
2023-02-11T20:24:44.896Z,34.30
2023-02-11T20:27:12.924Z,38.10
2023-02-11T20:29:40.074Z,34.00
2023-02-11T20:32:07.527Z,31.90
2023-02-11T20:34:34.535Z,40.10
2023-02-11T20:37:02.395Z,37.50
2023-02-11T20:39:29.172Z,35.80
2023-02-11T20:41:57.639Z,34.10
2023-02-11T20:44:24.707Z,35.90
2023-02-11T20:46:54.250Z,36.30
2023-02-11T20:49:25.325Z,33.10
2023-02-11T20:51:53.952Z,35.80
2023-02-11T20:54:22.510Z,35.20
2023-02-11T20:56:51.302Z,31.90
2023-02-11T20:59:18.878Z,30.70
2023-02-11T21:04:32.936Z,30.20
2023-02-11T21:07:01.691Z,32.50
2023-02-11T21:09:33.445Z,38.20
2023-02-11T21:12:01.120Z,33.90
2023-02-11T21:14:28.152Z,36.80
2023-02-11T21:16:57.715Z,34.50
2023-02-11T21:19:25.026Z,33.60
2023-02-11T21:21:51.870Z,33.40
2023-02-11T21:24:18.651Z,33.20
2023-02-11T21:26:45.456Z,34.70
2023-02-11T21:29:12.366Z,34.40
2023-02-11T21:31:40.189Z,34.50
2023-02-11T21:34:07.713Z,29.70
2023-02-11T21:36:34.600Z,27.80
2023-02-11T21:39:03.861Z,30.90
2023-02-11T21:41:31.080Z,34.00
2023-02-11T21:43:58.176Z,33.40
2023-02-11T21:46:25.009Z,33.20
2023-02-11T21:48:52.305Z,32.20
2023-02-11T21:51:22.468Z,30.50
2023-02-11T21:53:54.607Z,31.60
2023-02-11T21:56:22.464Z,31.40
2023-02-11T21:58:53.091Z,28.60
2023-02-11T22:01:23.326Z,27.20
2023-02-11T22:03:50.845Z,25.30
2023-02-11T22:06:23.073Z,25.30
2023-02-11T22:08:50.257Z,23.30
2023-02-11T22:11:17.343Z,24.40
2023-02-11T22:13:44.197Z,21.00
2023-02-11T22:16:15.522Z,21.50
2023-02-11T22:18:46.455Z,21.10
2023-02-11T22:21:17.034Z,22.60
2023-02-11T22:23:44.682Z,22.30
2023-02-11T22:26:15.011Z,20.30
2023-02-11T22:28:42.826Z,22.10
2023-02-11T22:31:16.953Z,21.10
2023-02-11T22:33:44.132Z,20.70
2023-02-11T22:36:21.522Z,22.10
2023-02-11T22:38:49.286Z,22.20
2023-02-11T22:41:17.269Z,22.50
2023-02-11T22:43:45.036Z,20.80
2023-02-11T22:46:14.594Z,19.40
2023-02-11T22:48:41.809Z,16.00
2023-02-11T22:51:12.456Z,18.90
2023-02-11T22:53:39.593Z,20.50
2023-02-11T22:56:08.753Z,19.90
2023-02-11T22:58:37.031Z,20.60
2023-02-11T23:01:05.445Z,22.50
2023-02-11T23:03:33.430Z,22.20
2023-02-11T23:06:01.126Z,21.20
2023-02-11T23:08:30.011Z,20.60
2023-02-11T23:11:02.904Z,21.20
2023-02-11T23:13:29.708Z,21.90
2023-02-11T23:15:56.637Z,22.10
2023-02-11T23:18:23.605Z,22.50
2023-02-11T23:20:50.303Z,18.80
2023-02-11T23:23:17.010Z,21.30
2023-02-11T23:25:44.259Z,35.70
2023-02-11T23:28:12.460Z,21.40
2023-02-11T23:30:39.495Z,22.70
2023-02-11T23:33:06.273Z,19.70
2023-02-11T23:35:33.282Z,22.20
2023-02-11T23:38:00.103Z,22.10
2023-02-11T23:40:26.849Z,22.70
2023-02-11T23:42:53.646Z,22.80
2023-02-11T23:45:20.614Z,22.40
2023-02-11T23:47:47.694Z,21.90
2023-02-11T23:50:14.876Z,18.60
2023-02-11T23:52:41.955Z,19.10
2023-02-11T23:55:09.478Z,21.90
2023-02-11T23:57:36.303Z,20.80
